createdAt,value
2023-01-09T00:00:49.028Z,54.10
2023-01-09T00:03:16.743Z,63.67
2023-01-09T00:05:43.369Z,50.25
2023-01-09T00:08:09.977Z,52.00
2023-01-09T00:10:36.688Z,56.25
2023-01-09T00:13:03.473Z,59.25
2023-01-09T00:15:30.093Z,59.80
2023-01-09T00:17:56.702Z,56.47
2023-01-09T00:20:23.264Z,59.55
2023-01-09T00:22:50.017Z,60.03
2023-01-09T00:25:16.769Z,52.42
2023-01-09T00:27:43.410Z,57.60
2023-01-09T00:30:11.253Z,67.22
2023-01-09T00:32:38.968Z,74.65
2023-01-09T00:35:05.992Z,74.40
2023-01-09T00:37:32.595Z,66.68
2023-01-09T00:39:59.185Z,67.68
2023-01-09T00:42:30.681Z,61.50
2023-01-09T00:45:01.179Z,62.75
2023-01-09T00:47:33.605Z,62.78
2023-01-09T00:50:05.170Z,61.72
2023-01-09T00:52:35.941Z,59.97
2023-01-09T00:55:03.258Z,71.53
2023-01-09T00:57:30.476Z,63.95
2023-01-09T00:59:58.462Z,60.08
2023-01-09T01:02:25.831Z,53.63
2023-01-09T01:05:07.923Z,51.25
2023-01-09T01:07:43.235Z,48.25
2023-01-09T01:10:16.276Z,45.22
2023-01-09T01:12:44.174Z,46.92
2023-01-09T01:15:11.493Z,42.17
2023-01-09T01:17:39.622Z,43.10
2023-01-09T01:20:09.167Z,39.08
2023-01-09T01:22:35.841Z,40.03
2023-01-09T01:25:03.686Z,38.88
2023-01-09T01:27:30.381Z,34.55
2023-01-09T01:29:57.131Z,38.70
2023-01-09T01:32:24.259Z,39.25
2023-01-09T01:34:50.937Z,35.70
2023-01-09T01:37:17.566Z,34.08
2023-01-09T01:39:44.194Z,34.30
2023-01-09T01:42:13.598Z,35.80
2023-01-09T01:45:10.847Z,37.15
2023-01-09T01:47:45.611Z,33.72
2023-01-09T01:50:19.645Z,31.85
2023-01-09T01:52:52.632Z,34.13
2023-01-09T01:55:20.295Z,35.03
2023-01-09T01:57:53.739Z,35.15
2023-01-09T02:00:25.783Z,35.05
2023-01-09T02:02:52.500Z,37.63
2023-01-09T02:05:19.288Z,30.55
2023-01-09T02:07:45.906Z,32.97
2023-01-09T02:10:12.515Z,31.23
2023-01-09T02:12:39.088Z,34.55
2023-01-09T02:15:08.285Z,30.60
2023-01-09T02:18:01.787Z,30.25
2023-01-09T02:20:40.084Z,29.33
2023-01-09T02:23:29.654Z,32.72
2023-01-09T02:26:08.269Z,36.50
2023-01-09T02:29:12.512Z,36.40
2023-01-09T02:32:10.618Z,32.85
2023-01-09T02:35:07.791Z,32.85
2023-01-09T02:37:49.515Z,30.08
2023-01-09T02:40:32.020Z,34.75
2023-01-09T02:43:00.815Z,33.60
2023-01-09T02:45:28.546Z,32.95
2023-01-09T02:47:55.236Z,31.17
2023-01-09T02:50:27.917Z,35.20
2023-01-09T02:53:25.217Z,31.95
2023-01-09T02:58:50.458Z,36.72
2023-01-09T03:01:32.562Z,32.03
2023-01-09T03:04:12.768Z,28.60
2023-01-09T03:06:49.105Z,35.78
2023-01-09T03:11:52.118Z,35.15
2023-01-09T03:14:22.842Z,35.03
2023-01-09T03:16:56.757Z,35.60
2023-01-09T03:19:27.136Z,31.98
2023-01-09T03:21:55.460Z,38.95
2023-01-09T03:24:22.319Z,32.05
2023-01-09T03:26:48.934Z,28.67
2023-01-09T03:29:15.601Z,28.92
2023-01-09T03:31:43.364Z,31.30
2023-01-09T03:34:10.346Z,32.88
2023-01-09T03:36:37.188Z,31.55
2023-01-09T03:39:03.983Z,34.83
2023-01-09T03:41:30.690Z,36.40
2023-01-09T03:43:57.310Z,33.55
2023-01-09T03:46:24.488Z,30.73
2023-01-09T03:48:51.220Z,34.72
2023-01-09T03:51:17.944Z,31.25
2023-01-09T03:53:44.719Z,29.17
2023-01-09T03:56:11.389Z,25.77
2023-01-09T03:58:38.037Z,30.75
2023-01-09T04:01:09.512Z,29.42
2023-01-09T04:03:53.718Z,34.67
2023-01-09T04:06:20.509Z,38.00
2023-01-09T04:08:47.147Z,34.53
2023-01-09T04:11:15.851Z,39.70
2023-01-09T04:13:42.826Z,38.17
2023-01-09T04:16:09.492Z,35.53
2023-01-09T04:18:36.190Z,47.42
2023-01-09T04:21:02.794Z,47.63
2023-01-09T04:23:29.393Z,49.67
2023-01-09T04:25:55.991Z,54.05
2023-01-09T04:28:22.573Z,56.60
2023-01-09T04:30:49.173Z,61.20
2023-01-09T04:33:15.753Z,53.95
2023-01-09T04:35:42.405Z,57.50
2023-01-09T04:38:09.057Z,65.90
2023-01-09T04:40:35.721Z,64.00
2023-01-09T04:43:02.315Z,54.90
2023-01-09T04:45:29.127Z,57.95
2023-01-09T04:47:55.754Z,55.05
2023-01-09T04:50:22.417Z,57.30
2023-01-09T04:52:49.003Z,53.47
2023-01-09T04:55:15.662Z,54.83
2023-01-09T04:57:42.225Z,54.97
2023-01-09T05:00:12.257Z,56.10
2023-01-09T05:02:39.483Z,60.45
2023-01-09T05:05:11.136Z,61.45
2023-01-09T05:07:38.038Z,54.58
2023-01-09T05:10:05.257Z,55.90
2023-01-09T05:12:31.942Z,57.25
2023-01-09T05:14:58.760Z,56.80
2023-01-09T05:17:25.400Z,54.10
2023-01-09T05:19:52.147Z,54.65
2023-01-09T05:22:18.751Z,51.28
2023-01-09T05:24:45.383Z,53.92
2023-01-09T05:27:12.041Z,57.47
2023-01-09T05:29:38.730Z,55.35
2023-01-09T05:32:05.373Z,46.65
2023-01-09T05:34:33.824Z,45.28
2023-01-09T05:37:00.557Z,44.95
2023-01-09T05:39:47.415Z,54.20
2023-01-09T05:44:57.857Z,42.80
2023-01-09T05:47:31.661Z,51.50
2023-01-09T05:49:58.292Z,50.90
2023-01-09T05:52:24.931Z,53.53
2023-01-09T05:54:51.581Z,52.00
2023-01-09T05:57:18.159Z,54.70
2023-01-09T05:59:44.863Z,57.95
2023-01-09T06:02:11.569Z,52.10
2023-01-09T06:04:38.355Z,53.92
2023-01-09T06:07:05.196Z,56.85
2023-01-09T06:09:31.880Z,51.47
2023-01-09T06:11:58.456Z,55.72
2023-01-09T06:14:25.033Z,47.38
2023-01-09T06:16:51.589Z,52.75
2023-01-09T06:19:18.136Z,48.70
2023-01-09T06:21:47.885Z,52.17
2023-01-09T06:24:17.761Z,50.58
2023-01-09T06:26:44.325Z,51.15
2023-01-09T06:29:11.200Z,44.45
2023-01-09T06:31:37.788Z,53.13
2023-01-09T06:34:04.466Z,48.65
2023-01-09T06:36:31.016Z,53.08
2023-01-09T06:38:57.587Z,48.30
2023-01-09T06:41:24.207Z,49.25
2023-01-09T06:43:50.731Z,53.83
2023-01-09T06:46:17.279Z,53.03
2023-01-09T06:48:43.830Z,55.25
2023-01-09T06:51:10.387Z,51.50
2023-01-09T06:53:36.934Z,59.35
2023-01-09T06:56:03.675Z,58.10
2023-01-09T06:58:30.207Z,66.90
2023-01-09T07:00:58.818Z,57.28
2023-01-09T07:03:25.541Z,61.63
2023-01-09T07:05:52.150Z,66.75
2023-01-09T07:08:18.684Z,60.47
2023-01-09T07:10:45.338Z,61.22
2023-01-09T07:13:11.941Z,66.78
2023-01-09T07:15:38.621Z,56.95
2023-01-09T07:18:05.368Z,59.85
2023-01-09T07:20:31.930Z,64.03
2023-01-09T07:22:58.895Z,57.78
2023-01-09T07:25:25.477Z,65.38
2023-01-09T07:27:52.031Z,59.75
2023-01-09T07:30:18.662Z,60.22
2023-01-09T07:32:45.273Z,59.08
2023-01-09T07:35:11.843Z,65.32
2023-01-09T07:37:38.489Z,64.25
2023-01-09T07:40:05.572Z,62.33
2023-01-09T07:42:32.618Z,56.40
2023-01-09T07:44:59.203Z,52.88
2023-01-09T07:47:25.745Z,62.03
2023-01-09T07:49:52.308Z,54.92
2023-01-09T07:52:19.223Z,51.63
2023-01-09T07:54:45.742Z,53.65
2023-01-09T07:57:12.321Z,51.50
2023-01-09T07:59:38.875Z,58.55
2023-01-09T08:02:07.434Z,49.92
2023-01-09T08:04:34.055Z,52.22
2023-01-09T08:07:00.654Z,55.10
2023-01-09T08:09:27.257Z,54.17
2023-01-09T08:11:54.178Z,54.90
2023-01-09T08:14:21.415Z,56.72
2023-01-09T08:16:47.949Z,50.05
2023-01-09T08:19:14.543Z,57.80
2023-01-09T08:21:41.139Z,61.67
2023-01-09T08:24:07.725Z,65.85
2023-01-09T08:26:34.293Z,61.38
2023-01-09T08:29:00.851Z,69.38
2023-01-09T08:31:27.410Z,61.03
2023-01-09T08:33:54.135Z,61.83
2023-01-09T08:36:20.827Z,63.22
2023-01-09T08:38:47.413Z,66.90
2023-01-09T08:41:29.344Z,62.60
2023-01-09T08:44:11.189Z,56.17
2023-01-09T08:46:53.241Z,60.47
2023-01-09T08:49:20.723Z,57.38
2023-01-09T08:51:47.261Z,51.90
2023-01-09T08:54:14.011Z,56.22
2023-01-09T08:56:40.545Z,61.20
2023-01-09T08:59:07.110Z,56.95
2023-01-09T09:01:33.699Z,60.25
2023-01-09T09:04:00.905Z,60.53
2023-01-09T09:06:27.579Z,58.03
2023-01-09T09:08:54.165Z,59.80
2023-01-09T09:11:20.724Z,60.92
2023-01-09T09:13:47.289Z,53.92
2023-01-09T09:16:13.930Z,55.65
2023-01-09T09:18:40.486Z,51.47
2023-01-09T09:21:07.168Z,52.75
2023-01-09T09:23:33.731Z,63.15
2023-01-09T09:26:00.362Z,55.78
2023-01-09T09:28:26.911Z,55.22
2023-01-09T09:30:53.475Z,45.50
2023-01-09T09:33:20.043Z,44.15
2023-01-09T09:35:46.654Z,45.97
2023-01-09T09:38:13.472Z,40.03
2023-01-09T09:40:56.771Z,38.80
2023-01-09T09:43:48.734Z,35.40
2023-01-09T09:46:31.099Z,39.75
2023-01-09T09:49:07.070Z,32.28
2023-01-09T09:51:43.491Z,32.40
2023-01-09T09:56:50.217Z,34.95
2023-01-09T09:59:21.335Z,34.13
2023-01-09T10:01:51.866Z,36.25
2023-01-09T10:04:22.813Z,42.53
2023-01-09T10:06:56.768Z,35.30
2023-01-09T10:09:51.039Z,41.85
2023-01-09T10:12:29.988Z,39.42
2023-01-09T10:14:59.444Z,44.67
2023-01-09T10:17:26.003Z,46.47
2023-01-09T10:20:11.751Z,37.20
2023-01-09T10:22:54.670Z,34.92
2023-01-09T10:25:40.652Z,28.77
2023-01-09T10:28:22.815Z,10.40
2023-01-09T10:30:58.739Z,7.05
2023-01-09T10:33:43.079Z,9.27
2023-01-09T10:36:40.209Z,9.20
2023-01-09T10:39:17.815Z,10.13
2023-01-09T10:41:51.297Z,8.95
2023-01-09T10:44:24.383Z,11.65
2023-01-09T10:46:56.118Z,10.02
2023-01-09T10:49:24.101Z,12.30
2023-01-09T10:51:57.540Z,10.75
2023-01-09T10:54:24.765Z,11.05
2023-01-09T10:56:56.429Z,9.27
2023-01-09T10:59:24.405Z,8.38
2023-01-09T11:01:53.571Z,8.02
2023-01-09T11:04:27.369Z,7.63
2023-01-09T11:07:00.238Z,8.05
2023-01-09T11:09:26.924Z,7.07
2023-01-09T11:11:53.510Z,2.70
2023-01-09T11:14:20.075Z,1.10
2023-01-09T11:16:56.364Z,2.65
2023-01-09T11:19:24.115Z,2.65
2023-01-09T11:21:50.812Z,1.30
2023-01-09T11:24:29.538Z,1.65
2023-01-09T11:27:11.309Z,2.53
2023-01-09T11:29:38.557Z,1.63
2023-01-09T11:32:05.665Z,0.73
2023-01-09T11:34:36.292Z,0.70
2023-01-09T11:37:07.889Z,1.05
2023-01-09T11:39:41.243Z,1.38
2023-01-09T11:42:20.239Z,0.65
2023-01-09T11:44:46.828Z,1.65
2023-01-09T11:47:38.401Z,1.40
2023-01-09T11:50:26.995Z,0.15
2023-01-09T11:53:15.161Z,4.85
2023-01-09T11:55:43.286Z,1.95
2023-01-09T11:58:14.585Z,2.22
2023-01-09T12:01:01.335Z,1.27
2023-01-09T12:03:58.483Z,2.88
2023-01-09T12:06:40.364Z,1.05
2023-01-09T12:09:11.999Z,0.60
2023-01-09T12:11:54.269Z,3.17
2023-01-09T12:14:42.840Z,0.73
2023-01-09T12:17:19.266Z,0.93
2023-01-09T12:22:32.046Z,1.23
2023-01-09T12:25:25.607Z,1.17
2023-01-09T12:28:18.803Z,1.52
2023-01-09T12:31:01.216Z,8.15
2023-01-09T12:33:44.089Z,1.27
2023-01-09T12:36:20.495Z,2.45
2023-01-09T12:41:21.836Z,4.68
2023-01-09T12:43:49.386Z,1.65
2023-01-09T12:46:19.070Z,0.40
2023-01-09T12:49:11.254Z,2.28
2023-01-09T12:51:44.352Z,2.75
2023-01-09T12:54:19.796Z,1.65
2023-01-09T12:56:56.480Z,1.13
2023-01-09T12:59:31.977Z,1.08
2023-01-09T13:02:07.870Z,1.33
2023-01-09T13:04:41.511Z,6.72
2023-01-09T13:07:26.455Z,1.63
2023-01-09T13:10:02.444Z,2.72
2023-01-09T13:12:36.860Z,3.80
2023-01-09T13:15:15.214Z,0.80
2023-01-09T13:17:48.180Z,1.17
2023-01-09T13:20:33.643Z,1.23
2023-01-09T13:23:02.853Z,3.25
2023-01-09T13:25:47.434Z,4.07
2023-01-09T13:28:16.429Z,3.17
2023-01-09T13:30:50.641Z,0.65
2023-01-09T13:33:23.477Z,1.45
2023-01-09T13:35:55.960Z,2.22
2023-01-09T13:38:25.597Z,1.38
2023-01-09T13:41:27.472Z,0.93
2023-01-09T13:43:57.081Z,1.17
2023-01-09T13:46:34.145Z,1.08
2023-01-09T13:49:01.318Z,6.65
2023-01-09T13:51:37.066Z,4.43
2023-01-09T13:54:04.703Z,1.63
2023-01-09T13:56:31.250Z,1.45
2023-01-09T13:58:59.988Z,1.65
2023-01-09T14:01:34.415Z,3.42
2023-01-09T14:04:35.499Z,2.15
2023-01-09T14:07:20.516Z,2.78
2023-01-09T14:10:08.625Z,3.22
2023-01-09T14:12:41.091Z,3.95
2023-01-09T14:15:26.845Z,2.08
2023-01-09T14:18:04.180Z,3.15
2023-01-09T14:20:38.735Z,7.25
2023-01-09T14:26:00.191Z,5.57
2023-01-09T14:28:30.531Z,3.10
2023-01-09T14:30:57.078Z,2.38
2023-01-09T14:33:25.130Z,2.92
2023-01-09T14:36:15.683Z,4.13
2023-01-09T14:39:00.998Z,2.72
2023-01-09T14:42:02.442Z,1.00
2023-01-09T14:44:31.937Z,3.67
2023-01-09T14:47:10.049Z,2.78
2023-01-09T14:49:43.565Z,4.15
2023-01-09T14:52:23.348Z,2.75
2023-01-09T14:54:51.979Z,0.95
2023-01-09T14:57:28.599Z,1.67
2023-01-09T15:00:00.504Z,1.85
2023-01-09T15:02:32.557Z,1.35
2023-01-09T15:05:06.005Z,3.65
2023-01-09T15:07:40.484Z,1.85
2023-01-09T15:10:14.689Z,1.70
2023-01-09T15:12:41.382Z,2.20
2023-01-09T15:15:15.335Z,1.90
2023-01-09T15:17:43.439Z,2.05
2023-01-09T15:20:22.206Z,3.45
2023-01-09T15:22:52.777Z,1.63
2023-01-09T15:25:40.859Z,5.07
2023-01-09T15:28:29.329Z,2.42
2023-01-09T15:31:01.120Z,2.42
2023-01-09T15:33:27.936Z,4.40
2023-01-09T15:36:00.347Z,5.95
2023-01-09T15:38:29.318Z,7.80
2023-01-09T15:41:01.290Z,8.75
2023-01-09T15:43:30.409Z,8.52
2023-01-09T15:45:58.312Z,8.85
2023-01-09T15:48:29.780Z,10.88
2023-01-09T15:50:56.377Z,10.85
2023-01-09T15:53:25.463Z,15.52
2023-01-09T15:56:08.028Z,19.60
2023-01-09T15:58:38.652Z,17.75
2023-01-09T16:01:34.458Z,21.13
2023-01-09T16:04:11.964Z,17.92
2023-01-09T16:06:45.554Z,35.22
2023-01-09T16:09:16.945Z,36.88
2023-01-09T16:11:48.174Z,33.78
2023-01-09T16:14:21.799Z,31.42
2023-01-09T16:16:51.809Z,26.60
2023-01-09T16:19:33.885Z,28.50
2023-01-09T16:22:03.406Z,19.98
2023-01-09T16:24:45.346Z,22.25
2023-01-09T16:27:21.314Z,25.95
2023-01-09T16:29:50.525Z,17.45
2023-01-09T16:32:22.191Z,16.90
2023-01-09T16:34:58.788Z,16.90
2023-01-09T16:37:26.159Z,15.95
2023-01-09T16:40:12.575Z,18.92
2023-01-09T16:42:54.375Z,18.02
2023-01-09T16:45:21.358Z,22.30
2023-01-09T16:47:47.978Z,16.95
2023-01-09T16:50:14.534Z,12.07
2023-01-09T16:52:41.045Z,12.10
2023-01-09T16:55:08.075Z,12.88
2023-01-09T16:57:35.315Z,7.55
2023-01-09T17:00:02.308Z,5.32
2023-01-09T17:02:28.922Z,6.50
2023-01-09T17:04:56.022Z,6.00
2023-01-09T17:07:27.920Z,5.30
2023-01-09T17:09:54.440Z,5.82
2023-01-09T17:12:24.265Z,4.85
2023-01-09T17:14:51.137Z,7.78
2023-01-09T17:17:18.435Z,6.30
2023-01-09T17:19:47.051Z,10.80
2023-01-09T17:22:14.435Z,18.40
2023-01-09T17:24:56.702Z,32.63
2023-01-09T17:27:46.451Z,21.52
2023-01-09T17:30:18.988Z,11.25
2023-01-09T17:32:46.314Z,5.97
2023-01-09T17:35:13.668Z,12.27
2023-01-09T17:37:40.235Z,10.43
2023-01-09T17:40:23.128Z,9.32
2023-01-09T17:42:49.910Z,11.32
2023-01-09T17:45:16.517Z,14.80
2023-01-09T17:47:43.168Z,23.70
2023-01-09T17:50:19.667Z,28.25
2023-01-09T17:52:47.955Z,22.98
2023-01-09T17:55:14.842Z,18.60
2023-01-09T17:57:43.622Z,24.65
2023-01-09T18:00:24.862Z,17.05
2023-01-09T18:02:52.403Z,18.27
2023-01-09T18:05:19.411Z,16.08
2023-01-09T18:07:46.009Z,16.58
2023-01-09T18:10:15.407Z,12.80
2023-01-09T18:12:42.010Z,14.18
2023-01-09T18:15:09.117Z,14.02
2023-01-09T18:17:35.739Z,12.80
2023-01-09T18:20:02.343Z,18.67
2023-01-09T18:22:29.611Z,19.27
2023-01-09T18:24:59.333Z,16.40
2023-01-09T18:27:29.433Z,15.38
2023-01-09T18:29:57.199Z,15.75
2023-01-09T18:32:24.577Z,17.23
2023-01-09T18:34:51.095Z,18.48
2023-01-09T18:37:17.686Z,14.63
2023-01-09T18:39:44.322Z,14.35
2023-01-09T18:42:10.890Z,11.82
2023-01-09T18:44:37.511Z,13.93
2023-01-09T18:47:04.141Z,21.27
2023-01-09T18:49:30.709Z,17.77
2023-01-09T18:51:57.406Z,17.48
2023-01-09T18:54:23.950Z,12.98
2023-01-09T18:56:50.815Z,19.80
2023-01-09T18:59:17.372Z,23.95
2023-01-09T19:01:43.983Z,17.77
2023-01-09T19:04:10.565Z,14.43
2023-01-09T19:06:37.827Z,18.65
2023-01-09T19:09:05.311Z,21.92
2023-01-09T19:11:31.994Z,19.02
2023-01-09T19:13:59.103Z,17.15
2023-01-09T19:16:25.787Z,16.73
2023-01-09T19:18:52.414Z,17.73
2023-01-09T19:21:21.245Z,19.63
2023-01-09T19:23:49.101Z,19.80
2023-01-09T19:26:20.503Z,18.77
2023-01-09T19:28:48.193Z,19.17
2023-01-09T19:31:18.022Z,19.42
2023-01-09T19:33:45.240Z,20.13
2023-01-09T19:36:12.043Z,15.77
2023-01-09T19:38:38.686Z,15.68
2023-01-09T19:41:22.367Z,16.15
2023-01-09T19:43:48.963Z,24.63
2023-01-09T19:46:18.650Z,18.98
2023-01-09T19:48:46.176Z,17.58
2023-01-09T19:51:15.572Z,17.98
2023-01-09T19:53:42.634Z,17.38
2023-01-09T19:56:11.769Z,11.57
2023-01-09T19:58:38.962Z,13.82
2023-01-09T20:01:07.655Z,17.15
2023-01-09T20:03:34.353Z,18.85
2023-01-09T20:06:06.503Z,16.98
2023-01-09T20:08:33.582Z,17.65
2023-01-09T20:11:03.426Z,18.42
2023-01-09T20:13:32.125Z,17.73
2023-01-09T20:16:00.472Z,17.55
2023-01-09T20:18:27.048Z,14.77
2023-01-09T20:20:53.854Z,15.80
2023-01-09T20:23:22.283Z,16.20
2023-01-09T20:25:51.219Z,13.32
2023-01-09T20:28:18.128Z,9.68
2023-01-09T20:30:47.196Z,12.43
2023-01-09T20:33:15.242Z,11.18
2023-01-09T20:35:43.848Z,13.60
2023-01-09T20:38:12.744Z,14.45
2023-01-09T20:40:39.987Z,11.63
2023-01-09T20:43:08.578Z,14.68
2023-01-09T20:45:35.317Z,13.82
2023-01-09T20:48:06.162Z,16.15
2023-01-09T20:50:33.204Z,13.88
2023-01-09T20:52:59.872Z,12.73
2023-01-09T20:55:26.520Z,14.35
2023-01-09T20:57:53.144Z,9.00
2023-01-09T21:00:20.689Z,11.50
2023-01-09T21:02:47.300Z,8.52
2023-01-09T21:05:14.274Z,9.55
2023-01-09T21:07:41.243Z,8.57
2023-01-09T21:10:08.367Z,18.73
2023-01-09T21:12:34.960Z,9.98
2023-01-09T21:15:05.085Z,10.70
2023-01-09T21:17:35.308Z,11.48
2023-01-09T21:20:02.260Z,10.98
2023-01-09T21:22:32.336Z,7.88
2023-01-09T21:24:59.181Z,9.07
2023-01-09T21:27:31.372Z,8.20
2023-01-09T21:29:57.964Z,14.45
2023-01-09T21:32:24.519Z,11.50
2023-01-09T21:34:51.116Z,9.05
2023-01-09T21:37:17.761Z,8.27
2023-01-09T21:39:44.454Z,8.07
2023-01-09T21:42:26.328Z,12.85
2023-01-09T21:45:08.132Z,10.80
2023-01-09T21:47:34.635Z,7.22
2023-01-09T21:50:01.202Z,8.15
2023-01-09T21:52:27.800Z,13.50
2023-01-09T21:54:54.400Z,8.27
2023-01-09T21:57:21.055Z,8.85
2023-01-09T21:59:47.593Z,8.70
2023-01-09T22:02:15.955Z,9.07
2023-01-09T22:04:43.132Z,6.93
2023-01-09T22:07:10.413Z,5.90
2023-01-09T22:09:39.692Z,7.53
2023-01-09T22:12:06.975Z,8.95
2023-01-09T22:14:33.519Z,6.43
2023-01-09T22:17:00.065Z,9.40
2023-01-09T22:19:28.151Z,5.10
2023-01-09T22:21:54.849Z,6.75
2023-01-09T22:24:21.814Z,6.22
2023-01-09T22:26:51.913Z,5.55
2023-01-09T22:29:22.060Z,9.10
2023-01-09T22:31:48.711Z,8.40
2023-01-09T22:34:17.460Z,9.40
2023-01-09T22:36:45.387Z,5.15
2023-01-09T22:39:14.468Z,7.55
2023-01-09T22:41:41.601Z,8.40
2023-01-09T22:44:11.007Z,5.45
2023-01-09T22:46:38.222Z,4.88
2023-01-09T22:49:04.925Z,6.50
2023-01-09T22:51:33.724Z,7.15
2023-01-09T22:54:01.055Z,4.03
2023-01-09T22:56:27.969Z,7.28
2023-01-09T22:58:58.392Z,4.50
2023-01-09T23:01:25.197Z,7.43
2023-01-09T23:03:51.728Z,4.10
2023-01-09T23:06:20.623Z,5.13
2023-01-09T23:08:50.291Z,3.53
2023-01-09T23:11:41.595Z,3.33
2023-01-09T23:14:08.210Z,4.25
2023-01-09T23:16:34.845Z,3.72
2023-01-09T23:19:01.436Z,3.30
2023-01-09T23:21:28.186Z,3.15
2023-01-09T23:23:54.730Z,3.13
2023-01-09T23:26:21.307Z,3.17
2023-01-09T23:28:47.852Z,1.88
2023-01-09T23:31:15.436Z,2.20
2023-01-09T23:33:41.995Z,3.17
2023-01-09T23:36:08.805Z,1.10
2023-01-09T23:38:35.371Z,4.35
2023-01-09T23:41:01.918Z,5.18
2023-01-09T23:43:28.484Z,4.47
2023-01-09T23:45:55.051Z,3.38
2023-01-09T23:48:21.624Z,3.13
2023-01-09T23:50:51.877Z,1.05
2023-01-09T23:53:20.313Z,1.00
2023-01-09T23:55:47.345Z,0.98
2023-01-09T23:58:14.213Z,4.68
